Orbital elements of CZ-4 DEB
| Launched | 2 September 1990 |
| Flight ended | – |
| Launch site | Taiyuan Space Center, PRC |
| Owner | People's Republic of China |
| NORAD ID | 20915 |
| Date fetched |
Epoch osculation |
Inc. [°] |
Ecc. | RA asc node [hr] |
Arg Peri. [°] |
Mean anom [°] |
Mean motion [rev/day] |
Abs. mag |
| Date fetched |
Epoch osculation |
Inc. [°] |
Ecc. | RA asc node [hr] |
Arg Peri. [°] |
Mean anom [°] |
Mean motion [rev/day] |
Abs. mag |
| 2026 May 05 17:57 | 2026 May 05 05:36:08 | 98.5529 | 0.00365 | 7.9817 | 143.5064 | 347.8347 | 14.27526 | – |
| 2026 May 04 17:57 | 2026 Apr 30 11:18:32 | 98.5526 | 0.00362 | 7.6709 | 157.2762 | 347.8347 | 14.27526 | – |
| 2026 May 03 17:57 | 2026 Apr 30 11:18:32 | 98.5526 | 0.00362 | 7.6709 | 157.2762 | 347.8347 | 14.27526 | – |
| 2026 May 02 17:57 | 2026 Apr 30 11:18:32 | 98.5526 | 0.00362 | 7.6709 | 157.2762 | 347.8347 | 14.27526 | – |
| 2026 May 01 17:56 | 2026 Apr 30 11:18:32 | 98.5526 | 0.00362 | 7.6709 | 157.2762 | 347.8347 | 14.27526 | – |
| 2026 Apr 30 17:56 | 2026 Apr 30 11:18:32 | 98.5526 | 0.00362 | 7.6709 | 157.2762 | 347.8347 | 14.27526 | – |
| 2026 Apr 29 17:57 | 2026 Apr 24 10:40:46 | 98.5530 | 0.00358 | 7.2777 | 174.8346 | 347.8347 | 14.27526 | – |
| 2026 Apr 28 17:56 | 2026 Apr 24 10:40:46 | 98.5530 | 0.00358 | 7.2777 | 174.8346 | 347.8347 | 14.27526 | – |
| 2026 Apr 27 17:58 | 2026 Apr 24 10:40:46 | 98.5530 | 0.00358 | 7.2777 | 174.8346 | 347.8347 | 14.27526 | – |
| 2026 Apr 26 17:58 | 2026 Apr 24 10:40:46 | 98.5530 | 0.00358 | 7.2777 | 174.8346 | 347.8347 | 14.27526 | – |
| 2026 Apr 25 17:58 | 2026 Apr 24 10:40:46 | 98.5530 | 0.00358 | 7.2777 | 174.8346 | 347.8347 | 14.27526 | – |
| 2026 Apr 24 17:59 | 2026 Apr 24 10:40:46 | 98.5530 | 0.00358 | 7.2777 | 174.8346 | 347.8347 | 14.27526 | – |
| 2026 Apr 23 17:57 | 2026 Apr 18 22:51:04 | 98.5533 | 0.00355 | 6.9193 | 190.9667 | 347.8347 | 14.27526 | – |
| 2026 Apr 22 17:57 | 2026 Apr 18 22:51:04 | 98.5533 | 0.00355 | 6.9193 | 190.9667 | 347.8347 | 14.27526 | – |
| 2026 Apr 21 17:57 | 2026 Apr 18 22:51:04 | 98.5533 | 0.00355 | 6.9193 | 190.9667 | 347.8347 | 14.27526 | – |
| 2026 Apr 20 17:57 | 2026 Apr 18 22:51:04 | 98.5533 | 0.00355 | 6.9193 | 190.9667 | 347.8347 | 14.27526 | – |
| 2026 Apr 19 17:58 | 2026 Apr 18 22:51:04 | 98.5533 | 0.00355 | 6.9193 | 190.9667 | 347.8347 | 14.27526 | – |
| 2026 Apr 18 17:56 | 2026 Apr 13 05:03:29 | 98.5528 | 0.00351 | 6.5447 | 207.9675 | 347.8347 | 14.27526 | – |
| 2026 Apr 16 17:57 | 2026 Apr 13 05:03:29 | 98.5528 | 0.00351 | 6.5447 | 207.9675 | 347.8347 | 14.27526 | – |
| 2026 Apr 14 17:57 | 2026 Apr 13 05:03:29 | 98.5528 | 0.00351 | 6.5447 | 207.9675 | 347.8347 | 14.27526 | – |
| 2026 Apr 13 17:57 | 2026 Apr 13 05:03:29 | 98.5528 | 0.00351 | 6.5447 | 207.9675 | 347.8347 | 14.27526 | – |
| 2026 Apr 12 17:57 | 2026 Apr 07 22:44:25 | 98.5528 | 0.00348 | 6.2013 | 223.9572 | 347.8347 | 14.27526 | – |
| 2026 Apr 11 17:57 | 2026 Apr 07 22:44:25 | 98.5528 | 0.00348 | 6.2013 | 223.9572 | 347.8347 | 14.27526 | – |
| 2026 Apr 10 17:58 | 2026 Apr 07 22:44:25 | 98.5528 | 0.00348 | 6.2013 | 223.9572 | 347.8347 | 14.27526 | – |
| 2026 Apr 09 18:01 | 2026 Apr 07 22:44:25 | 98.5528 | 0.00348 | 6.2013 | 223.9572 | 347.8347 | 14.27526 | – |
| 2026 Apr 08 17:57 | 2026 Apr 07 22:44:25 | 98.5528 | 0.00348 | 6.2013 | 223.9572 | 347.8347 | 14.27526 | – |